createdAt,value
2022-12-31T00:01:27.306Z,0.25
2022-12-31T00:03:54.855Z,0.20
2022-12-31T00:06:23.965Z,0.20
2022-12-31T00:08:51.661Z,0.30
2022-12-31T00:11:19.183Z,0.20
2022-12-31T00:13:46.935Z,0.30
2022-12-31T00:16:15.749Z,0.20
2022-12-31T00:18:47.144Z,0.20
2022-12-31T00:21:14.634Z,0.20
2022-12-31T00:23:42.008Z,0.20
2022-12-31T00:26:10.678Z,0.20
2022-12-31T00:28:38.238Z,0.20
2022-12-31T00:31:06.713Z,3.20
2022-12-31T00:33:33.945Z,0.95
2022-12-31T00:36:05.140Z,0.60
2022-12-31T00:38:32.388Z,2.78
2022-12-31T00:40:59.581Z,1.30
2022-12-31T00:43:26.684Z,0.40
2022-12-31T00:45:54.112Z,0.28
2022-12-31T00:48:21.315Z,0.30
2022-12-31T00:50:48.475Z,0.63
2022-12-31T00:53:15.651Z,0.75
2022-12-31T00:55:42.776Z,0.40
2022-12-31T00:58:09.987Z,0.43
2022-12-31T01:00:37.595Z,0.82
2022-12-31T01:03:05.361Z,0.40
2022-12-31T01:05:33.037Z,0.30
2022-12-31T01:08:00.222Z,0.40
2022-12-31T01:11:02.388Z,0.30
2022-12-31T01:13:29.495Z,0.28
2022-12-31T01:15:56.788Z,0.52
2022-12-31T01:18:24.098Z,0.55
2022-12-31T01:20:51.224Z,0.50
2022-12-31T01:23:18.423Z,0.60
2022-12-31T01:25:45.538Z,0.70
2022-12-31T01:28:12.727Z,0.40
2022-12-31T01:30:40.568Z,0.30
2022-12-31T01:33:07.713Z,0.45
2022-12-31T01:35:35.949Z,0.40
2022-12-31T01:38:03.207Z,0.60
2022-12-31T01:40:30.451Z,0.40
2022-12-31T01:42:58.212Z,0.40
2022-12-31T01:45:25.587Z,0.30
2022-12-31T01:47:54.540Z,0.28
2022-12-31T01:50:23.895Z,0.40
2022-12-31T01:52:51.870Z,0.50
2022-12-31T01:55:24.435Z,0.70
2022-12-31T01:57:53.155Z,0.43
2022-12-31T02:00:20.533Z,0.50
2022-12-31T02:02:47.824Z,0.45
2022-12-31T02:05:28.171Z,0.40
2022-12-31T02:07:55.620Z,0.30
2022-12-31T02:10:22.753Z,0.30
2022-12-31T02:12:50.206Z,0.30
2022-12-31T02:15:21.302Z,0.30
2022-12-31T02:17:57.119Z,0.20
2022-12-31T02:20:36.225Z,0.25
2022-12-31T02:23:16.780Z,0.32
2022-12-31T02:25:56.141Z,0.40
2022-12-31T02:28:23.319Z,0.60
2022-12-31T02:30:52.254Z,0.32
2022-12-31T02:33:31.782Z,0.75
2022-12-31T02:36:00.634Z,0.60
2022-12-31T02:38:31.301Z,0.70
2022-12-31T02:40:59.020Z,0.47
2022-12-31T02:43:29.403Z,0.70
2022-12-31T02:46:05.781Z,0.60
2022-12-31T02:48:45.220Z,0.60
2022-12-31T02:51:31.229Z,0.70
2022-12-31T02:54:20.075Z,0.60
2022-12-31T02:56:50.219Z,0.50
2022-12-31T02:59:35.910Z,0.50
2022-12-31T03:02:16.281Z,0.52
2022-12-31T03:04:44.934Z,0.60
2022-12-31T03:07:16.356Z,0.40
2022-12-31T03:09:43.479Z,0.30
2022-12-31T03:12:30.413Z,0.40
2022-12-31T03:14:57.839Z,0.25
2022-12-31T03:17:25.311Z,0.30
2022-12-31T03:20:11.077Z,0.40
2022-12-31T03:22:40.450Z,0.20
2022-12-31T03:25:28.865Z,0.20
2022-12-31T03:27:56.053Z,0.20
2022-12-31T03:30:24.097Z,0.20
2022-12-31T03:32:51.390Z,0.20
2022-12-31T03:35:20.681Z,0.10
2022-12-31T03:37:48.471Z,0.10
2022-12-31T03:40:16.481Z,0.10
2022-12-31T03:42:43.641Z,0.10
2022-12-31T03:45:11.503Z,0.10
2022-12-31T03:47:38.706Z,0.00
2022-12-31T03:50:06.852Z,0.08
2022-12-31T03:52:34.013Z,0.10
2022-12-31T03:55:04.209Z,0.03
2022-12-31T03:57:32.038Z,0.10
2022-12-31T03:59:59.372Z,0.00
2022-12-31T04:02:29.242Z,0.05
2022-12-31T04:04:56.855Z,0.00
2022-12-31T04:07:24.256Z,0.00
2022-12-31T04:09:51.453Z,0.00
2022-12-31T04:12:18.738Z,0.00
2022-12-31T04:14:45.871Z,0.00
2022-12-31T04:17:13.041Z,0.00
2022-12-31T04:19:40.343Z,0.10
2022-12-31T04:22:07.529Z,0.00
2022-12-31T04:24:35.196Z,0.00
2022-12-31T04:27:07.490Z,0.10
2022-12-31T04:29:35.385Z,0.10
2022-12-31T04:32:02.798Z,0.10
2022-12-31T04:34:29.970Z,0.30
2022-12-31T04:36:57.105Z,0.20
2022-12-31T04:39:25.338Z,0.25
2022-12-31T04:41:52.951Z,0.10
2022-12-31T04:44:20.198Z,0.10
2022-12-31T04:46:47.391Z,0.20
2022-12-31T04:49:14.727Z,0.30
2022-12-31T04:51:42.066Z,0.17
2022-12-31T04:54:09.228Z,0.30
2022-12-31T04:56:36.738Z,0.35
2022-12-31T04:59:04.996Z,0.30
2022-12-31T05:01:32.985Z,0.20
2022-12-31T05:04:02.582Z,0.38
2022-12-31T05:06:29.705Z,0.50
2022-12-31T05:08:56.893Z,0.22
2022-12-31T05:11:24.050Z,0.47
2022-12-31T05:13:51.337Z,0.30
2022-12-31T05:16:18.523Z,0.30
2022-12-31T05:18:45.720Z,0.30
2022-12-31T05:21:16.469Z,0.28
2022-12-31T05:23:43.650Z,0.28
2022-12-31T05:26:10.911Z,0.30
2022-12-31T05:28:38.080Z,0.22
2022-12-31T05:31:05.432Z,0.40
2022-12-31T05:33:32.739Z,0.30
2022-12-31T05:35:59.958Z,0.80
2022-12-31T05:38:27.117Z,0.30
2022-12-31T05:41:01.390Z,0.45
2022-12-31T05:43:28.580Z,0.40
2022-12-31T05:45:55.918Z,0.30
2022-12-31T05:48:23.189Z,0.40
2022-12-31T05:50:50.590Z,0.30
2022-12-31T05:53:17.797Z,0.30
2022-12-31T05:55:46.306Z,0.28
2022-12-31T05:58:13.952Z,0.40
2022-12-31T06:00:41.494Z,0.30
2022-12-31T06:03:08.978Z,0.20
2022-12-31T06:05:36.273Z,0.40
2022-12-31T06:08:03.598Z,0.30
2022-12-31T06:10:30.805Z,0.20
2022-12-31T06:12:58.188Z,0.20
2022-12-31T06:15:28.070Z,0.40
2022-12-31T06:17:55.414Z,0.30
2022-12-31T06:20:22.656Z,0.30
2022-12-31T06:22:49.863Z,0.20
2022-12-31T06:25:17.076Z,0.25
2022-12-31T06:27:44.412Z,0.22
2022-12-31T06:30:11.950Z,0.45
2022-12-31T06:32:40.887Z,0.10
2022-12-31T06:35:08.547Z,0.30
2022-12-31T06:37:35.731Z,0.40
2022-12-31T06:40:03.393Z,0.60
2022-12-31T06:42:31.128Z,0.30
2022-12-31T06:44:59.204Z,0.47
2022-12-31T06:47:26.821Z,1.17
2022-12-31T06:49:54.248Z,0.50
2022-12-31T06:52:21.507Z,2.90
2022-12-31T06:54:49.155Z,0.43
2022-12-31T06:57:16.450Z,0.43
2022-12-31T06:59:44.833Z,0.75
2022-12-31T07:02:15.401Z,1.40
2022-12-31T07:04:50.486Z,0.60
2022-12-31T07:07:35.968Z,1.55
2022-12-31T07:10:29.838Z,2.40
2022-12-31T07:15:43.261Z,0.40
2022-12-31T07:18:25.030Z,0.65
2022-12-31T07:20:52.412Z,1.88
2022-12-31T07:23:20.011Z,0.50
2022-12-31T07:26:01.021Z,0.40
2022-12-31T07:28:34.312Z,0.50
2022-12-31T07:31:07.590Z,0.38
2022-12-31T07:33:44.287Z,0.40
2022-12-31T07:36:30.275Z,0.57
2022-12-31T07:39:02.287Z,0.70
2022-12-31T07:41:38.649Z,0.52
2022-12-31T07:44:30.206Z,0.50
2022-12-31T07:46:58.579Z,0.60
2022-12-31T07:49:26.451Z,0.50
2022-12-31T07:51:54.244Z,0.60
2022-12-31T07:54:21.879Z,0.30
2022-12-31T07:56:50.155Z,0.50
2022-12-31T07:59:46.701Z,0.57
2022-12-31T08:02:16.927Z,0.50
2022-12-31T08:04:44.323Z,0.40
2022-12-31T08:07:26.779Z,0.40
2022-12-31T08:10:06.026Z,0.40
2022-12-31T08:12:34.845Z,0.57
2022-12-31T08:15:02.645Z,0.93
2022-12-31T08:17:32.609Z,0.60
2022-12-31T08:19:59.855Z,0.80
2022-12-31T08:22:43.006Z,0.60
2022-12-31T08:25:13.209Z,0.30
2022-12-31T08:27:46.441Z,0.50
2022-12-31T08:30:21.142Z,0.68
2022-12-31T08:33:03.569Z,0.60
2022-12-31T08:35:36.869Z,0.38
2022-12-31T08:38:28.294Z,1.15
2022-12-31T08:41:14.121Z,0.80
2022-12-31T08:44:06.729Z,0.50
2022-12-31T08:46:40.645Z,0.50
2022-12-31T08:49:09.346Z,0.40
2022-12-31T08:51:36.606Z,1.23
2022-12-31T08:54:04.142Z,0.60
2022-12-31T08:56:33.566Z,0.50
2022-12-31T08:59:19.466Z,0.30
2022-12-31T09:01:49.715Z,0.50
2022-12-31T09:04:20.165Z,0.30
2022-12-31T09:07:00.597Z,0.40
2022-12-31T09:09:46.172Z,0.70
2022-12-31T09:12:25.493Z,0.30
2022-12-31T09:14:57.649Z,0.63
2022-12-31T09:17:43.967Z,0.40
2022-12-31T09:20:41.826Z,0.70
2022-12-31T09:23:10.823Z,0.60
2022-12-31T09:25:42.820Z,0.57
2022-12-31T09:28:16.140Z,0.40
2022-12-31T09:31:03.035Z,0.50
2022-12-31T09:33:30.196Z,0.55
2022-12-31T09:35:58.642Z,0.40
2022-12-31T09:38:31.020Z,0.70
2022-12-31T09:41:06.936Z,0.40
2022-12-31T09:43:58.969Z,0.50
2022-12-31T09:46:46.911Z,0.45
2022-12-31T09:49:17.118Z,0.60
2022-12-31T09:51:44.492Z,0.40
2022-12-31T09:54:27.171Z,0.63
2022-12-31T09:57:00.559Z,0.50
2022-12-31T09:59:38.210Z,0.50
2022-12-31T10:02:24.491Z,0.57
2022-12-31T10:05:04.484Z,0.63
2022-12-31T10:07:52.150Z,0.60
2022-12-31T10:10:26.879Z,0.40
2022-12-31T10:13:13.013Z,0.50
2022-12-31T10:15:55.360Z,0.40
2022-12-31T10:18:23.433Z,0.50
2022-12-31T10:21:09.464Z,0.40
2022-12-31T10:23:48.262Z,0.70
2022-12-31T10:26:25.229Z,0.40
2022-12-31T10:28:56.819Z,0.20
2022-12-31T10:31:42.813Z,0.57
2022-12-31T10:34:14.742Z,0.40
2022-12-31T10:36:55.893Z,0.60
2022-12-31T10:39:41.907Z,0.60
2022-12-31T10:42:09.094Z,0.40
2022-12-31T10:45:02.091Z,0.43
2022-12-31T10:47:54.053Z,0.55
2022-12-31T10:50:33.276Z,0.35
2022-12-31T10:53:06.488Z,0.50
2022-12-31T10:55:33.900Z,0.30
2022-12-31T10:58:17.663Z,0.38
2022-12-31T11:01:04.102Z,0.50
2022-12-31T11:03:47.921Z,0.45
2022-12-31T11:06:24.288Z,0.43
2022-12-31T11:09:05.894Z,0.50
2022-12-31T11:11:48.367Z,0.30
2022-12-31T11:14:22.013Z,0.30
2022-12-31T11:19:31.064Z,0.32
2022-12-31T11:22:10.538Z,0.40
2022-12-31T11:24:56.268Z,0.28
2022-12-31T11:27:39.472Z,0.40
2022-12-31T11:30:17.236Z,0.32
2022-12-31T11:32:51.474Z,0.40
2022-12-31T11:35:37.690Z,0.40
2022-12-31T11:38:18.428Z,0.40
2022-12-31T11:40:45.579Z,0.30
2022-12-31T11:43:28.140Z,0.50
2022-12-31T11:46:16.618Z,0.40
2022-12-31T11:48:46.050Z,0.30
2022-12-31T11:51:13.216Z,0.40
2022-12-31T11:53:46.421Z,0.43
2022-12-31T11:56:13.633Z,0.40
2022-12-31T11:58:45.575Z,0.60
2022-12-31T12:01:14.748Z,0.50
2022-12-31T12:03:44.828Z,0.43
2022-12-31T12:06:13.485Z,0.40
2022-12-31T12:08:41.343Z,0.60
2022-12-31T12:11:14.569Z,0.52
2022-12-31T12:13:41.711Z,0.57
2022-12-31T12:16:09.210Z,0.82
2022-12-31T12:18:45.550Z,0.40
2022-12-31T12:21:14.575Z,0.50
2022-12-31T12:23:42.781Z,0.35
2022-12-31T12:26:26.791Z,0.47
2022-12-31T12:28:53.957Z,0.40
2022-12-31T12:31:22.753Z,0.38
2022-12-31T12:33:51.065Z,0.57
2022-12-31T12:36:19.462Z,0.50
2022-12-31T12:38:47.101Z,0.60
2022-12-31T12:41:23.617Z,0.55
2022-12-31T12:43:50.875Z,0.40
2022-12-31T12:46:18.254Z,0.47
2022-12-31T12:48:47.318Z,0.52
2022-12-31T12:51:30.600Z,0.60
2022-12-31T12:54:10.037Z,0.45
2022-12-31T12:56:42.958Z,0.75
2022-12-31T12:59:19.523Z,0.50
2022-12-31T13:01:52.032Z,0.70
2022-12-31T13:04:36.109Z,0.60
2022-12-31T13:07:03.460Z,0.65
2022-12-31T13:09:38.865Z,0.60
2022-12-31T13:12:15.513Z,0.40
2022-12-31T13:14:49.512Z,0.50
2022-12-31T13:17:33.439Z,0.43
2022-12-31T13:20:11.042Z,0.50
2022-12-31T13:22:43.325Z,0.40
2022-12-31T13:25:29.886Z,0.70
2022-12-31T13:27:59.450Z,0.60
2022-12-31T13:30:35.847Z,0.43
2022-12-31T13:33:06.612Z,0.73
2022-12-31T13:35:35.014Z,0.47
2022-12-31T13:38:07.477Z,0.47
2022-12-31T13:40:49.121Z,0.50
2022-12-31T13:43:20.889Z,0.40
2022-12-31T13:45:59.123Z,0.50
2022-12-31T13:48:30.841Z,0.40
2022-12-31T13:51:08.207Z,0.50
2022-12-31T13:53:35.409Z,0.60
2022-12-31T13:56:04.939Z,0.50
2022-12-31T13:58:36.501Z,0.43
2022-12-31T14:01:13.126Z,0.60
2022-12-31T14:03:51.540Z,0.60
2022-12-31T14:06:30.829Z,0.40
2022-12-31T14:08:58.106Z,0.60
2022-12-31T14:11:42.144Z,0.60
2022-12-31T14:14:29.531Z,0.60
2022-12-31T14:17:23.499Z,0.80
2022-12-31T14:19:59.556Z,0.50
2022-12-31T14:22:49.759Z,0.60
2022-12-31T14:25:23.581Z,0.80
2022-12-31T14:27:54.975Z,0.50
2022-12-31T14:30:23.704Z,0.70
2022-12-31T14:32:53.901Z,0.70
2022-12-31T14:35:36.442Z,0.50
2022-12-31T14:38:22.488Z,0.50
2022-12-31T14:40:55.021Z,0.50
2022-12-31T14:43:34.569Z,0.43
2022-12-31T14:46:16.085Z,0.50
2022-12-31T14:49:09.722Z,0.55
2022-12-31T14:51:38.028Z,0.40
2022-12-31T14:54:05.658Z,0.57
2022-12-31T14:56:33.162Z,0.65
2022-12-31T14:59:01.759Z,0.40
2022-12-31T15:01:29.658Z,0.70
2022-12-31T15:03:58.342Z,0.40
2022-12-31T15:06:44.395Z,0.65
2022-12-31T15:09:14.618Z,0.50
2022-12-31T15:11:48.008Z,0.68
2022-12-31T15:14:18.597Z,0.40
2022-12-31T15:16:52.875Z,0.57
2022-12-31T15:19:20.108Z,0.47
2022-12-31T15:22:05.393Z,0.80
2022-12-31T15:24:32.665Z,0.70
2022-12-31T15:27:04.813Z,1.08
2022-12-31T15:29:33.995Z,0.60
2022-12-31T15:32:03.639Z,0.47
2022-12-31T15:34:35.658Z,0.68
2022-12-31T15:37:07.964Z,0.55
2022-12-31T15:39:35.078Z,0.63
2022-12-31T15:44:51.337Z,0.50
2022-12-31T15:47:25.231Z,0.30
2022-12-31T15:49:54.391Z,0.40
2022-12-31T15:52:23.586Z,0.80
2022-12-31T15:54:52.342Z,0.60
2022-12-31T15:57:31.898Z,0.40
2022-12-31T15:59:59.744Z,0.60
2022-12-31T16:02:28.092Z,0.60
2022-12-31T16:04:56.373Z,0.55
2022-12-31T16:07:24.643Z,0.77
2022-12-31T16:09:53.578Z,0.80
2022-12-31T16:12:25.334Z,0.38
2022-12-31T16:14:57.895Z,0.68
2022-12-31T16:17:28.280Z,0.90
2022-12-31T16:19:56.163Z,0.70
2022-12-31T16:22:30.247Z,0.70
2022-12-31T16:27:45.989Z,0.77
2022-12-31T16:30:19.884Z,0.52
2022-12-31T16:32:48.458Z,0.77
2022-12-31T16:35:23.821Z,0.55
2022-12-31T16:38:09.854Z,0.73
2022-12-31T16:40:37.151Z,0.60
2022-12-31T16:43:04.589Z,0.73
2022-12-31T16:45:35.760Z,0.82
2022-12-31T16:48:20.515Z,0.47
2022-12-31T16:50:53.678Z,0.60
2022-12-31T16:53:24.874Z,0.85
2022-12-31T16:55:56.980Z,0.52
2022-12-31T16:58:32.338Z,0.50
2022-12-31T17:01:15.168Z,0.50
2022-12-31T17:03:44.581Z,0.77
2022-12-31T17:06:17.051Z,1.10
2022-12-31T17:09:02.782Z,0.60
2022-12-31T17:11:39.375Z,0.98
2022-12-31T17:14:06.953Z,0.57
2022-12-31T17:16:35.019Z,0.75
2022-12-31T17:19:02.325Z,0.60
2022-12-31T17:21:31.014Z,0.68
2022-12-31T17:24:02.577Z,0.80
2022-12-31T17:26:32.009Z,1.02
2022-12-31T17:29:01.014Z,0.77
2022-12-31T17:31:33.452Z,0.80
2022-12-31T17:34:19.719Z,0.70
2022-12-31T17:36:58.964Z,0.60
2022-12-31T17:39:26.877Z,0.80
2022-12-31T17:41:56.959Z,0.63
2022-12-31T17:44:26.556Z,1.00
2022-12-31T17:46:54.264Z,0.65
2022-12-31T17:49:27.274Z,1.02
2022-12-31T17:51:54.496Z,0.90
2022-12-31T17:54:21.762Z,0.68
2022-12-31T17:56:49.073Z,0.60
2022-12-31T17:59:17.472Z,0.65
2022-12-31T18:01:45.048Z,0.50
2022-12-31T18:04:16.346Z,0.70
2022-12-31T18:06:43.792Z,0.45
2022-12-31T18:09:11.177Z,1.05
2022-12-31T18:11:39.341Z,0.73
2022-12-31T18:14:07.331Z,0.60
2022-12-31T18:16:35.062Z,0.68
2022-12-31T18:19:02.289Z,0.60
2022-12-31T18:21:34.522Z,0.77
2022-12-31T18:26:29.391Z,0.95
2022-12-31T18:29:02.107Z,0.63
2022-12-31T18:31:30.831Z,1.10
2022-12-31T18:33:59.476Z,1.38
2022-12-31T18:36:27.903Z,1.02
2022-12-31T18:38:55.348Z,1.15
2022-12-31T18:41:24.002Z,0.70
2022-12-31T18:43:51.548Z,0.70
2022-12-31T18:46:20.201Z,0.90
2022-12-31T18:48:47.770Z,0.65
2022-12-31T18:51:16.101Z,0.90
2022-12-31T18:53:43.358Z,0.52
2022-12-31T18:56:14.537Z,1.05
2022-12-31T18:58:42.075Z,0.95
2022-12-31T19:01:26.431Z,1.85
2022-12-31T19:03:54.557Z,1.98
2022-12-31T19:06:21.838Z,1.50
2022-12-31T19:08:49.269Z,0.90
2022-12-31T19:11:17.055Z,0.80
2022-12-31T19:13:44.389Z,0.73
2022-12-31T19:16:11.813Z,0.68
2022-12-31T19:18:39.312Z,0.77
2022-12-31T19:21:06.723Z,1.00
2022-12-31T19:23:33.962Z,0.98
2022-12-31T19:26:01.182Z,0.60
2022-12-31T19:28:30.016Z,0.90
2022-12-31T19:30:57.131Z,0.93
2022-12-31T19:33:24.574Z,1.00
2022-12-31T19:35:52.148Z,1.17
2022-12-31T19:38:21.031Z,0.73
2022-12-31T19:40:48.893Z,0.88
2022-12-31T19:43:17.183Z,1.00
2022-12-31T19:45:44.780Z,1.17
2022-12-31T19:48:13.640Z,0.80
2022-12-31T19:50:42.044Z,1.30
2022-12-31T19:53:12.085Z,1.55
2022-12-31T19:55:39.833Z,0.93
2022-12-31T19:58:07.400Z,0.98
2022-12-31T20:00:35.012Z,1.05
2022-12-31T20:03:02.632Z,1.15
2022-12-31T20:05:30.030Z,1.08
2022-12-31T20:07:57.489Z,1.08
2022-12-31T20:10:25.718Z,0.75
2022-12-31T20:12:52.988Z,0.80
2022-12-31T20:15:20.385Z,1.00
2022-12-31T20:17:47.782Z,0.82
2022-12-31T20:20:15.033Z,0.88
2022-12-31T20:22:42.217Z,0.70
2022-12-31T20:25:09.767Z,0.90
2022-12-31T20:27:37.014Z,1.10
2022-12-31T20:30:04.460Z,0.80
2022-12-31T20:32:31.938Z,0.93
2022-12-31T20:34:59.319Z,1.00
2022-12-31T20:37:26.650Z,1.30
2022-12-31T20:39:53.935Z,1.13
2022-12-31T20:42:21.418Z,1.10
2022-12-31T20:44:48.633Z,0.93
2022-12-31T20:47:15.868Z,0.70
2022-12-31T20:50:10.199Z,1.02
2022-12-31T20:52:31.452Z,1.27
2022-12-31T20:54:59.007Z,1.08
2022-12-31T20:57:31.615Z,0.93
2022-12-31T21:00:00.661Z,0.95
2022-12-31T21:02:40.862Z,0.90
2022-12-31T21:05:09.988Z,1.23
2022-12-31T21:07:37.416Z,1.40
2022-12-31T21:10:05.331Z,0.90
2022-12-31T21:12:45.115Z,1.17
2022-12-31T21:15:13.273Z,1.30
2022-12-31T21:17:40.599Z,1.48
2022-12-31T21:20:08.215Z,1.20
2022-12-31T21:22:36.587Z,0.80
2022-12-31T21:25:04.029Z,1.10
2022-12-31T21:27:34.181Z,1.30
2022-12-31T21:30:18.321Z,1.48
2022-12-31T21:32:46.481Z,1.58
2022-12-31T21:38:02.877Z,1.65
2022-12-31T21:40:30.609Z,0.93
2022-12-31T21:42:58.101Z,0.95
2022-12-31T21:45:25.487Z,1.30
2022-12-31T21:48:11.580Z,1.20
2022-12-31T21:50:38.866Z,1.15
2022-12-31T21:53:06.584Z,1.63
2022-12-31T21:55:52.570Z,1.20
2022-12-31T21:58:28.197Z,1.20
2022-12-31T22:01:15.006Z,1.38
2022-12-31T22:03:42.554Z,1.17
2022-12-31T22:06:13.643Z,1.20
2022-12-31T22:08:41.704Z,1.50
2022-12-31T22:11:09.391Z,1.10
2022-12-31T22:13:37.016Z,1.50
2022-12-31T22:16:06.092Z,1.20
2022-12-31T22:18:35.609Z,1.30
2022-12-31T22:21:03.037Z,1.40
2022-12-31T22:23:30.918Z,1.52
2022-12-31T22:25:58.157Z,1.02
2022-12-31T22:28:41.121Z,1.90
2022-12-31T22:31:11.017Z,1.70
2022-12-31T22:33:38.251Z,1.65
2022-12-31T22:36:07.097Z,1.80
2022-12-31T22:38:34.933Z,1.90
2022-12-31T22:41:15.991Z,1.63
2022-12-31T22:43:44.461Z,1.70
2022-12-31T22:46:16.447Z,1.40
2022-12-31T22:48:43.866Z,1.90
2022-12-31T22:51:11.623Z,1.75
2022-12-31T22:53:43.458Z,1.88
2022-12-31T22:56:12.454Z,2.00
2022-12-31T22:58:39.794Z,1.20
2022-12-31T23:01:08.298Z,2.10
2022-12-31T23:03:35.884Z,2.10
2022-12-31T23:06:03.265Z,2.00
2022-12-31T23:08:30.497Z,5.30
2022-12-31T23:11:06.151Z,3.40
2022-12-31T23:13:56.511Z,3.20
2022-12-31T23:16:43.151Z,5.45
2022-12-31T23:19:29.034Z,3.40
2022-12-31T23:22:14.925Z,2.70
2022-12-31T23:24:42.199Z,11.38
2022-12-31T23:27:09.875Z,3.92
2022-12-31T23:29:46.764Z,4.22
2022-12-31T23:32:18.456Z,6.25
2022-12-31T23:34:46.364Z,4.25
2022-12-31T23:37:14.175Z,5.93
2022-12-31T23:39:42.222Z,7.20
2022-12-31T23:42:09.621Z,6.75
2022-12-31T23:44:36.992Z,21.95
2022-12-31T23:47:04.469Z,6.53
2022-12-31T23:49:31.791Z,8.15
2022-12-31T23:52:01.234Z,4.70
2022-12-31T23:54:29.001Z,5.15
2022-12-31T23:56:56.179Z,5.35
2022-12-31T23:59:23.603Z,4.35
